Time;durP1;ratioP1;P1;durP2;ratioP2;P2;SDS_P1;SDS_P2;PMS_P1;PMS_P2;Temp;Humidity;BMP_temperature;BMP_pressure;BME280_temperature;BME280_humidity;BME280_pressure;Samples;Min_cycle;Max_cycle;Signal;HPM_P1;HPM_P2
2021/06/27 00:01:12;;;;;;;9.47;8.57;;;19.70;99.90;;;;;;5073020;28;20415;-51
2021/06/27 00:03:38;;;;;;;8.90;8.20;;;19.70;99.90;;;;;;5072698;28;20487;-53
2021/06/27 00:06:05;;;;;;;9.83;9.00;;;19.70;99.90;;;;;;5072699;28;20427;-52
2021/06/27 00:08:30;;;;;;;9.00;8.30;;;19.60;99.90;;;;;;5072173;28;20170;-52
2021/06/27 00:10:58;;;;;;;9.70;8.80;;;19.60;99.90;;;;;;5072923;28;20396;-54
2021/06/27 00:13:24;;;;;;;9.70;8.80;;;19.60;99.90;;;;;;5075171;28;20635;-50
2021/06/27 00:15:51;;;;;;;11.23;8.57;;;19.50;99.90;;;;;;5072170;28;20493;-55
2021/06/27 00:18:20;;;;;;;9.80;9.00;;;19.50;99.90;;;;;;5072781;28;20400;-54
2021/06/27 00:20:48;;;;;;;10.03;9.10;;;19.40;99.90;;;;;;5073218;28;20415;-53
2021/06/27 00:23:15;;;;;;;8.80;8.00;;;19.30;99.90;;;;;;5072738;28;20446;-50
2021/06/27 00:25:42;;;;;;;10.73;9.83;;;19.20;99.90;;;;;;5072712;28;20427;-52
2021/06/27 00:28:08;;;;;;;10.10;9.00;;;19.20;99.90;;;;;;5072805;28;20772;-52
2021/06/27 00:30:35;;;;;;;10.30;9.40;;;19.30;99.90;;;;;;5061810;28;20420;-52
2021/06/27 00:33:02;;;;;;;9.33;8.43;;;19.30;99.90;;;;;;5052410;28;20405;-53
2021/06/27 00:35:29;;;;;;;9.47;8.60;;;19.30;99.90;;;;;;5052556;28;20460;-54
2021/06/27 00:37:55;;;;;;;10.37;9.47;;;19.10;99.90;;;;;;5052420;28;20415;-53
2021/06/27 00:40:24;;;;;;;10.27;9.13;;;19.10;99.90;;;;;;5052331;28;20407;-55
2021/06/27 00:42:50;;;;;;;10.47;9.57;;;19.10;99.90;;;;;;5052016;28;20409;-51
2021/06/27 00:45:17;;;;;;;9.70;8.90;;;19.10;99.90;;;;;;5051226;28;20502;-55
2021/06/27 00:47:44;;;;;;;9.87;9.07;;;18.90;99.90;;;;;;5052775;28;20448;-50
2021/06/27 00:50:14;;;;;;;10.90;9.90;;;18.90;99.90;;;;;;5052414;28;20397;-51
2021/06/27 00:52:39;;;;;;;10.77;9.77;;;18.80;99.90;;;;;;5052269;28;20401;-51
2021/06/27 00:55:06;;;;;;;12.13;11.00;;;18.80;99.90;;;;;;5051868;28;20506;-55
2021/06/27 00:57:32;;;;;;;11.10;10.10;;;18.80;99.90;;;;;;5052330;28;20167;-53
2021/06/27 01:00:01;;;;;;;9.57;8.77;;;18.80;99.90;;;;;;5052340;28;20500;-51
2021/06/27 01:02:26;;;;;;;12.03;10.93;;;18.80;99.90;;;;;;5051651;28;20174;-52
2021/06/27 01:04:52;;;;;;;10.57;9.63;;;18.90;99.90;;;;;;5052112;28;20425;-55
2021/06/27 01:07:18;;;;;;;11.20;10.30;;;18.80;99.90;;;;;;5052205;28;20171;-51
2021/06/27 01:09:43;;;;;;;9.47;8.67;;;18.80;99.90;;;;;;5051357;28;20271;-53
2021/06/27 01:12:09;;;;;;;10.63;9.63;;;18.80;99.90;;;;;;5052258;28;20174;-56
2021/06/27 01:14:35;;;;;;;10.43;9.43;;;18.80;99.90;;;;;;5052175;28;20309;-53
2021/06/27 01:17:00;;;;;;;10.57;9.67;;;18.70;99.90;;;;;;5052114;28;20198;-55
2021/06/27 01:19:32;;;;;;;9.30;8.47;;;18.70;99.90;;;;;;5052508;28;20163;-54
2021/06/27 01:21:59;;;;;;;9.10;8.20;;;18.80;99.90;;;;;;5038534;28;20206;-55
2021/06/27 01:24:26;;;;;;;9.67;8.87;;;18.70;99.90;;;;;;5055722;28;20486;-55
2021/06/27 01:26:51;;;;;;;8.83;8.03;;;18.70;99.90;;;;;;5038234;28;20405;-56
2021/06/27 01:29:17;;;;;;;9.10;8.30;;;18.70;99.90;;;;;;5057612;28;20462;-55
2021/06/27 01:31:44;;;;;;;9.30;8.50;;;18.70;99.90;;;;;;5057189;28;20250;-55
2021/06/27 01:34:11;;;;;;;8.30;7.53;;;18.70;99.90;;;;;;5058237;28;20635;-54
2021/06/27 01:36:37;;;;;;;9.33;8.47;;;18.70;99.90;;;;;;5058289;28;20448;-57
2021/06/27 01:39:03;;;;;;;7.73;7.13;;;18.60;99.90;;;;;;5056217;28;20924;-52
2021/06/27 01:41:29;;;;;;;8.97;8.17;;;18.60;99.90;;;;;;5055544;28;20166;-52
2021/06/27 01:43:54;;;;;;;9.10;7.43;;;18.70;99.90;;;;;;5055476;28;20454;-52
2021/06/27 01:46:20;;;;;;;9.13;8.33;;;18.70;99.90;;;;;;5055351;28;20690;-51
2021/06/27 01:48:46;;;;;;;8.33;7.07;;;18.80;99.90;;;;;;5055732;28;20269;-53
2021/06/27 01:51:11;;;;;;;8.70;8.00;;;18.80;99.90;;;;;;5066383;28;20643;-51
2021/06/27 01:53:39;;;;;;;7.60;6.90;;;18.80;99.90;;;;;;5055426;28;20644;-53
2021/06/27 01:56:06;;;;;;;7.80;7.10;;;18.80;99.90;;;;;;5054913;28;20194;-52
2021/06/27 01:58:35;;;;;;;7.17;6.47;;;18.80;99.90;;;;;;5055258;28;20841;-51
2021/06/27 02:01:01;;;;;;;10.93;6.37;;;18.80;99.90;;;;;;5055055;28;20413;-52
2021/06/27 02:03:27;;;;;;;7.77;7.00;;;18.80;99.90;;;;;;5064731;28;20465;-51
2021/06/27 02:05:52;;;;;;;7.50;6.80;;;18.80;99.90;;;;;;5075319;28;20950;-52
2021/06/27 02:08:18;;;;;;;8.03;6.57;;;18.90;99.90;;;;;;5075033;28;20647;-53
2021/06/27 02:10:44;;;;;;;6.90;6.30;;;18.90;99.90;;;;;;5059962;28;20178;-53
2021/06/27 02:13:09;;;;;;;7.20;6.60;;;19.00;99.90;;;;;;5055008;28;20663;-54
2021/06/27 02:15:35;;;;;;;7.47;6.87;;;19.00;99.90;;;;;;5054199;28;20238;-52
2021/06/27 02:18:09;;;;;;;10.93;9.90;;;19.00;99.90;;;;;;5054748;28;20512;-52
2021/06/27 02:20:36;;;;;;;8.03;7.23;;;19.10;99.90;;;;;;5054605;28;20158;-55
2021/06/27 02:23:02;;;;;;;10.03;7.63;;;19.00;99.90;;;;;;5054524;28;20450;-52
2021/06/27 02:25:27;;;;;;;8.47;7.77;;;18.90;99.90;;;;;;5054134;28;20805;-52
2021/06/27 02:27:53;;;;;;;8.13;7.43;;;18.80;99.90;;;;;;5054634;28;20181;-51
2021/06/27 02:30:20;;;;;;;8.37;7.57;;;18.80;99.90;;;;;;5054867;28;20228;-52
2021/06/27 02:32:46;;;;;;;7.83;7.13;;;18.80;99.90;;;;;;5053571;28;20405;-54
2021/06/27 02:35:13;;;;;;;7.50;6.80;;;18.70;99.90;;;;;;5054064;28;20425;-53
2021/06/27 02:37:40;;;;;;;7.63;6.93;;;18.70;99.90;;;;;;5036119;28;20459;-53
2021/06/27 02:40:08;;;;;;;8.10;6.50;;;18.70;99.90;;;;;;5053926;28;20405;-50
2021/06/27 02:42:34;;;;;;;6.07;5.57;;;18.70;99.90;;;;;;5055054;28;20503;-54
2021/06/27 02:44:59;;;;;;;6.10;5.60;;;18.50;99.90;;;;;;5054172;28;20459;-50
2021/06/27 02:47:25;;;;;;;7.83;6.30;;;18.50;99.90;;;;;;5053784;28;20174;-50
2021/06/27 02:49:51;;;;;;;6.70;5.93;;;18.50;99.90;;;;;;5053967;28;20212;-50
2021/06/27 02:52:17;;;;;;;7.13;6.43;;;18.60;99.90;;;;;;5054112;28;20525;-52
2021/06/27 02:54:42;;;;;;;6.83;6.27;;;18.50;99.90;;;;;;5053373;28;20201;-49
2021/06/27 02:57:08;;;;;;;6.67;6.10;;;18.40;99.90;;;;;;5053632;28;20444;-51
2021/06/27 02:59:34;;;;;;;6.83;6.23;;;18.40;99.90;;;;;;5053768;28;20638;-51
2021/06/27 03:01:59;;;;;;;6.77;6.10;;;18.40;99.90;;;;;;5052441;28;20170;-49
2021/06/27 03:04:25;;;;;;;5.57;5.07;;;18.40;99.90;;;;;;5053731;28;20223;-50
2021/06/27 03:06:50;;;;;;;6.40;5.90;;;18.40;99.90;;;;;;5053928;28;20170;-50
2021/06/27 03:09:16;;;;;;;5.83;5.33;;;18.30;99.90;;;;;;5053854;28;20685;-50
2021/06/27 03:11:41;;;;;;;5.63;5.23;;;18.30;99.90;;;;;;5053705;28;20530;-51
2021/06/27 03:14:07;;;;;;;6.20;5.63;;;18.40;99.90;;;;;;5053544;28;20226;-52
2021/06/27 03:16:33;;;;;;;5.60;5.20;;;18.40;99.90;;;;;;5073061;22;20233;-49
2021/06/27 03:18:58;;;;;;;6.83;6.23;;;18.40;99.90;;;;;;5045824;28;20635;-47
2021/06/27 03:21:24;;;;;;;5.90;5.07;;;18.40;99.90;;;;;;5053597;28;20163;-48
2021/06/27 03:23:49;;;;;;;6.63;6.10;;;18.50;99.90;;;;;;5053499;28;20194;-47
2021/06/27 03:26:15;;;;;;;6.47;5.97;;;18.40;99.90;;;;;;5053712;28;20682;-48
2021/06/27 03:28:43;;;;;;;5.87;5.37;;;18.40;99.90;;;;;;5053783;28;20534;-49
2021/06/27 03:31:09;;;;;;;5.47;4.97;;;18.40;99.90;;;;;;5053236;28;20248;-50
2021/06/27 03:33:35;;;;;;;6.53;5.97;;;18.50;99.90;;;;;;5053292;28;20452;-48
2021/06/27 03:36:00;;;;;;;6.43;5.83;;;18.50;99.90;;;;;;5053251;28;20210;-51
2021/06/27 03:40:52;;;;;;;5.67;5.13;;;18.70;99.90;;;;;;5053825;28;20167;-52
2021/06/27 03:43:17;;;;;;;6.40;5.90;;;18.70;99.90;;;;;;5052740;28;20174;-48
2021/06/27 03:45:43;;;;;;;6.10;5.50;;;18.60;99.90;;;;;;5050551;28;20428;-52
2021/06/27 03:48:08;;;;;;;6.60;6.00;;;18.60;99.90;;;;;;5033360;28;20581;-52
2021/06/27 03:50:35;;;;;;;5.70;5.20;;;18.60;99.90;;;;;;5015526;28;20258;-51
2021/06/27 03:53:00;;;;;;;4.80;4.40;;;18.70;99.90;;;;;;5033018;28;20648;-51
2021/06/27 03:55:26;;;;;;;5.67;5.17;;;18.80;99.90;;;;;;5033098;28;20441;-47
2021/06/27 03:57:52;;;;;;;5.93;5.43;;;18.80;99.90;;;;;;5033173;28;20174;-53
2021/06/27 04:00:18;;;;;;;6.20;5.50;;;18.90;99.90;;;;;;5015548;28;20250;-48
2021/06/27 04:02:44;;;;;;;6.27;5.77;;;18.90;99.90;;;;;;5032703;28;20225;-50
2021/06/27 04:05:11;;;;;;;6.17;5.57;;;19.00;99.90;;;;;;5033299;28;20416;-48
2021/06/27 04:07:37;;;;;;;5.87;5.37;;;19.00;99.90;;;;;;5032939;28;20421;-51
2021/06/27 04:10:03;;;;;;;6.13;5.53;;;19.10;99.90;;;;;;5032799;28;20452;-49
2021/06/27 04:12:29;;;;;;;6.60;6.03;;;19.20;99.90;;;;;;5032916;28;20192;-49
2021/06/27 04:14:55;;;;;;;5.83;5.37;;;19.20;99.90;;;;;;5035466;28;20422;-52
2021/06/27 04:17:22;;;;;;;7.37;5.93;;;19.20;99.90;;;;;;5032300;28;20260;-48
2021/06/27 04:19:48;;;;;;;8.50;7.70;;;19.30;99.90;;;;;;5033156;28;20552;-48
2021/06/27 04:22:14;;;;;;;7.13;6.30;;;19.20;99.90;;;;;;5032783;28;20751;-48
2021/06/27 04:24:40;;;;;;;6.30;5.80;;;19.30;99.90;;;;;;5032538;28;20402;-52
2021/06/27 04:27:06;;;;;;;5.50;5.10;;;19.30;99.90;;;;;;5032823;28;20190;-52
2021/06/27 04:29:32;;;;;;;6.90;6.30;;;19.40;99.90;;;;;;5033293;28;20174;-52
2021/06/27 04:31:58;;;;;;;6.63;6.03;;;19.50;99.90;;;;;;5032419;28;20410;-49
2021/06/27 04:34:24;;;;;;;7.03;6.43;;;19.60;99.90;;;;;;5032745;28;20398;-50
2021/06/27 04:36:50;;;;;;;8.00;7.30;;;19.60;99.90;;;;;;5032550;28;20715;-49
2021/06/27 04:39:16;;;;;;;7.40;6.70;;;19.70;99.90;;;;;;5032723;28;20176;-49
2021/06/27 04:41:44;;;;;;;9.37;7.97;;;19.70;99.90;;;;;;5032642;28;20935;-52
2021/06/27 04:44:10;;;;;;;7.20;6.60;;;19.80;99.90;;;;;;5032594;28;20464;-51
2021/06/27 04:46:37;;;;;;;7.53;6.83;;;19.90;99.90;;;;;;5032386;28;20880;-53
2021/06/27 04:49:03;;;;;;;9.33;7.23;;;19.90;99.90;;;;;;5032566;28;20883;-53
2021/06/27 04:51:28;;;;;;;8.13;7.43;;;20.00;99.90;;;;;;5033085;28;20475;-54
2021/06/27 04:53:54;;;;;;;7.10;6.50;;;20.10;99.90;;;;;;5033020;28;20167;-52
2021/06/27 04:56:20;;;;;;;8.13;7.43;;;20.10;99.90;;;;;;5036450;28;20206;-54
2021/06/27 04:58:45;;;;;;;8.03;7.27;;;20.20;99.90;;;;;;5036596;28;20164;-54
2021/06/27 05:01:11;;;;;;;6.67;6.13;;;20.20;99.90;;;;;;5036554;28;20168;-55
2021/06/27 05:03:37;;;;;;;7.50;6.80;;;20.20;99.90;;;;;;5036573;28;20191;-55
2021/06/27 05:06:03;;;;;;;6.10;5.50;;;20.20;99.90;;;;;;5036143;28;20206;-54
2021/06/27 05:08:29;;;;;;;7.00;6.43;;;20.20;99.90;;;;;;5036254;28;20179;-52
2021/06/27 05:10:54;;;;;;;6.13;5.73;;;20.40;99.90;;;;;;5036122;28;20882;-55
2021/06/27 05:13:20;;;;;;;7.30;6.70;;;20.40;99.90;;;;;;5036431;28;20172;-53
2021/06/27 05:15:46;;;;;;;7.37;6.63;;;20.40;99.90;;;;;;5035820;28;20580;-52
2021/06/27 05:18:11;;;;;;;7.53;6.93;;;20.50;99.90;;;;;;5036321;28;20156;-51
2021/06/27 05:20:37;;;;;;;8.30;7.57;;;20.50;99.90;;;;;;5036846;28;20163;-53
2021/06/27 05:23:02;;;;;;;8.13;7.43;;;20.60;99.90;;;;;;5036497;28;20203;-53
2021/06/27 05:25:28;;;;;;;8.17;7.33;;;20.60;99.90;;;;;;5036023;28;20643;-50
2021/06/27 05:27:54;;;;;;;7.73;7.00;;;20.70;99.90;;;;;;5018097;28;20656;-55
2021/06/27 05:30:20;;;;;;;7.30;6.70;;;20.80;99.90;;;;;;5035752;28;20175;-53
2021/06/27 05:32:45;;;;;;;8.53;7.60;;;20.90;99.90;;;;;;5034624;28;20175;-50
2021/06/27 05:35:11;;;;;;;8.00;7.30;;;20.90;99.90;;;;;;5035685;28;20796;-52
2021/06/27 05:37:37;;;;;;;8.90;7.00;;;21.00;99.90;;;;;;5035522;28;20183;-52
2021/06/27 05:40:04;;;;;;;12.23;6.80;;;21.20;99.90;;;;;;5035685;28;20533;-54
2021/06/27 05:42:29;;;;;;;7.23;6.63;;;21.30;99.90;;;;;;5035393;28;20167;-51
2021/06/27 05:44:55;;;;;;;8.27;7.67;;;21.40;99.90;;;;;;5001470;28;20433;-50
2021/06/27 05:47:21;;;;;;;8.60;7.80;;;21.30;99.90;;;;;;5034985;28;20680;-53
2021/06/27 05:49:46;;;;;;;7.80;7.10;;;21.30;99.90;;;;;;5036307;28;20200;-51
2021/06/27 05:52:12;;;;;;;9.10;8.40;;;21.30;99.90;;;;;;5035418;28;20174;-54
2021/06/27 05:54:37;;;;;;;9.23;8.43;;;21.30;99.90;;;;;;5035686;28;20289;-53
2021/06/27 05:57:03;;;;;;;9.00;8.20;;;21.30;99.90;;;;;;5035199;28;20203;-54
2021/06/27 05:59:29;;;;;;;8.47;7.77;;;21.30;99.90;;;;;;5035278;28;20180;-55
2021/06/27 06:01:54;;;;;;;7.90;7.10;;;21.20;99.90;;;;;;5034902;28;20202;-53
2021/06/27 06:04:20;;;;;;;8.57;7.83;;;21.00;99.90;;;;;;5035341;28;20168;-52
2021/06/27 06:06:46;;;;;;;7.13;6.53;;;21.20;99.90;;;;;;5034524;28;20191;-49
2021/06/27 06:09:11;;;;;;;7.63;7.00;;;21.30;99.90;;;;;;5039810;28;20182;-54
2021/06/27 06:11:37;;;;;;;6.50;6.00;;;21.50;99.90;;;;;;5046050;28;20186;-54
2021/06/27 06:14:02;;;;;;;6.83;6.30;;;21.60;99.90;;;;;;5055615;28;20239;-53
2021/06/27 06:16:28;;;;;;;7.67;6.90;;;21.70;99.90;;;;;;5054450;28;20212;-54
2021/06/27 06:18:54;;;;;;;6.30;5.70;;;21.80;99.90;;;;;;5052817;28;20178;-51
2021/06/27 06:21:19;;;;;;;7.20;6.60;;;21.90;99.90;;;;;;5036045;28;20193;-54
2021/06/27 06:23:45;;;;;;;7.27;6.67;;;21.90;99.90;;;;;;5035052;28;20539;-54
2021/06/27 06:26:12;;;;;;;7.20;6.60;;;21.90;99.90;;;;;;5034678;28;20199;-51
2021/06/27 06:28:40;;;;;;;7.43;6.80;;;21.70;99.90;;;;;;5034712;28;20250;-52
2021/06/27 06:31:08;;;;;;;6.80;6.23;;;21.60;99.90;;;;;;5034473;28;20417;-54
2021/06/27 06:33:34;;;;;;;8.03;7.33;;;21.80;99.90;;;;;;5034220;28;20543;-53
2021/06/27 06:36:00;;;;;;;7.03;6.33;;;21.90;99.90;;;;;;5034598;28;20548;-54
2021/06/27 06:38:25;;;;;;;7.43;6.83;;;22.00;99.90;;;;;;5034558;28;20485;-49
2021/06/27 06:40:51;;;;;;;7.10;5.90;;;22.10;99.90;;;;;;5034937;28;20217;-53
2021/06/27 06:43:16;;;;;;;7.23;6.63;;;22.30;99.90;;;;;;5034666;28;20731;-51
2021/06/27 06:45:42;;;;;;;7.40;6.70;;;22.20;99.90;;;;;;5034556;28;20187;-55
2021/06/27 06:48:08;;;;;;;8.23;7.47;;;22.20;99.90;;;;;;5033932;28;20175;-54
2021/06/27 06:50:34;;;;;;;8.13;7.43;;;22.40;99.90;;;;;;5034505;28;20175;-52
2021/06/27 06:52:59;;;;;;;14.43;9.70;;;22.50;99.90;;;;;;5034765;28;20529;-53
2021/06/27 06:55:27;;;;;;;10.33;9.20;;;22.50;99.90;;;;;;5034147;28;20218;-51
2021/06/27 06:57:53;;;;;;;9.03;8.23;;;22.40;99.90;;;;;;5034950;28;20171;-50
2021/06/27 07:00:19;;;;;;;9.50;8.67;;;22.50;99.90;;;;;;5016383;28;20406;-55
2021/06/27 07:02:45;;;;;;;9.87;8.97;;;22.60;99.90;;;;;;5033741;28;20410;-50
2021/06/27 07:05:11;;;;;;;9.60;8.80;;;22.50;99.90;;;;;;5034418;28;20964;-48
2021/06/27 07:07:37;;;;;;;9.73;8.93;;;22.50;99.90;;;;;;5033927;28;20191;-50
2021/06/27 07:10:04;;;;;;;9.80;8.90;;;22.30;99.90;;;;;;5034717;28;20167;-53
2021/06/27 07:12:30;;;;;;;9.97;9.07;;;22.30;99.90;;;;;;5034777;28;20186;-52
2021/06/27 07:14:56;;;;;;;8.50;7.80;;;22.30;99.90;;;;;;5033840;28;20402;-52
2021/06/27 07:17:21;;;;;;;10.10;8.87;;;22.40;99.90;;;;;;5032990;28;20720;-53
2021/06/27 07:19:47;;;;;;;10.00;9.20;;;22.40;99.90;;;;;;5034012;28;20202;-54
2021/06/27 07:22:12;;;;;;;9.20;8.30;;;22.50;99.90;;;;;;5033930;28;20167;-51
2021/06/27 07:24:38;;;;;;;8.23;7.50;;;22.60;99.90;;;;;;5033638;28;20192;-53
2021/06/27 07:27:05;;;;;;;9.33;8.43;;;22.80;99.90;;;;;;5033787;28;20277;-54
2021/06/27 07:29:31;;;;;;;9.00;8.20;;;22.90;99.90;;;;;;5033821;28;20182;-49
2021/06/27 07:31:56;;;;;;;9.63;8.73;;;22.90;99.90;;;;;;5033152;28;20792;-53
2021/06/27 07:34:22;;;;;;;9.60;8.70;;;22.90;99.90;;;;;;5033763;28;20214;-52
2021/06/27 07:36:48;;;;;;;7.57;6.97;;;22.80;99.90;;;;;;5033391;28;20202;-54
2021/06/27 07:39:14;;;;;;;9.07;8.23;;;22.80;99.90;;;;;;5033565;28;20583;-53
2021/06/27 07:41:41;;;;;;;8.00;7.30;;;22.90;99.90;;;;;;5033354;28;20170;-54
2021/06/27 07:44:06;;;;;;;8.80;7.90;;;23.10;99.90;;;;;;5033573;28;20402;-49
2021/06/27 07:46:32;;;;;;;5.73;5.23;;;23.00;99.90;;;;;;5032960;28;20803;-50
2021/06/27 07:48:58;;;;;;;5.73;5.23;;;23.10;99.90;;;;;;5033143;28;20190;-55
2021/06/27 07:51:24;;;;;;;5.70;5.20;;;23.10;99.90;;;;;;5033408;28;20471;-55
2021/06/27 07:53:49;;;;;;;6.00;5.50;;;23.20;99.90;;;;;;5033143;28;20167;-55
2021/06/27 07:56:15;;;;;;;5.70;5.30;;;23.10;99.90;;;;;;5033359;28;20695;-52
2021/06/27 07:58:40;;;;;;;7.40;5.70;;;23.20;99.90;;;;;;5033419;28;20179;-53
2021/06/27 08:01:06;;;;;;;7.10;5.47;;;23.30;99.90;;;;;;5033161;28;20174;-55
2021/06/27 08:03:32;;;;;;;5.87;5.40;;;23.40;99.90;;;;;;5033478;28;20528;-53
2021/06/27 08:05:57;;;;;;;4.53;4.23;;;23.40;99.90;;;;;;5033188;28;20207;-51
2021/06/27 08:08:23;;;;;;;5.40;4.90;;;23.60;99.90;;;;;;5032893;28;20632;-52
2021/06/27 08:10:48;;;;;;;5.80;5.30;;;23.70;99.90;;;;;;5035439;28;20202;-54
2021/06/27 08:13:14;;;;;;;5.60;5.20;;;23.90;99.90;;;;;;5032906;28;20589;-52
2021/06/27 08:15:40;;;;;;;4.70;4.30;;;24.20;99.90;;;;;;5032928;28;20218;-53
2021/06/27 08:18:05;;;;;;;5.00;4.47;;;24.30;99.90;;;;;;5032951;28;20632;-55
2021/06/27 08:20:31;;;;;;;4.97;4.67;;;24.20;99.90;;;;;;5032929;28;20257;-49
2021/06/27 08:22:57;;;;;;;4.80;4.40;;;24.50;99.90;;;;;;5032897;28;20175;-53
2021/06/27 08:25:23;;;;;;;4.90;4.57;;;24.40;99.90;;;;;;5033107;28;20178;-54
2021/06/27 08:27:49;;;;;;;5.37;4.57;;;24.50;99.90;;;;;;5033361;28;20704;-51
2021/06/27 08:30:16;;;;;;;5.20;4.80;;;24.50;99.90;;;;;;5035865;28;20175;-53
2021/06/27 08:32:43;;;;;;;4.53;4.23;;;24.60;99.90;;;;;;5036539;28;20930;-52
2021/06/27 08:35:13;;;;;;;5.10;4.70;;;24.50;99.90;;;;;;5036903;28;20406;-51
2021/06/27 08:37:40;;;;;;;10.53;4.60;;;24.60;99.90;;;;;;5018850;28;20857;-50
2021/06/27 08:40:06;;;;;;;4.93;4.53;;;24.70;99.90;;;;;;5036729;28;20409;-52
2021/06/27 08:42:32;;;;;;;4.53;4.10;;;24.90;99.90;;;;;;5036606;28;20413;-53
2021/06/27 08:44:58;;;;;;;4.47;4.17;;;25.00;99.90;;;;;;5036527;28;20402;-51
2021/06/27 08:47:24;;;;;;;4.40;4.10;;;25.10;99.90;;;;;;5036521;28;20226;-55
2021/06/27 08:49:52;;;;;;;4.43;4.13;;;25.00;99.90;;;;;;5018741;28;20902;-51
2021/06/27 08:52:19;;;;;;;4.33;4.03;;;25.10;99.90;;;;;;5036711;28;20413;-54
2021/06/27 08:54:47;;;;;;;4.20;3.80;;;25.10;99.90;;;;;;5036142;28;20433;-54
2021/06/27 08:57:14;;;;;;;4.97;4.33;;;25.20;99.90;;;;;;5036229;28;20460;-53
2021/06/27 08:59:41;;;;;;;4.50;4.20;;;25.20;99.90;;;;;;5036627;28;20406;-52
2021/06/27 09:02:08;;;;;;;4.70;4.40;;;25.50;99.90;;;;;;5023336;28;20451;-56
2021/06/27 09:04:39;;;;;;;4.60;4.20;;;25.60;99.90;;;;;;5048177;28;20416;-53
2021/06/27 09:07:34;;;;;;;4.47;4.03;;;25.50;99.90;;;;;;5056409;28;20898;-56
2021/06/27 09:10:17;;;;;;;4.73;4.23;;;25.60;99.90;;;;;;5056172;28;20451;-56
2021/06/27 09:12:45;;;;;;;4.33;4.00;;;25.60;99.90;;;;;;5056314;28;20529;-52
2021/06/27 09:15:11;;;;;;;4.60;4.20;;;25.80;99.90;;;;;;5056337;28;20855;-49
2021/06/27 09:17:41;;;;;;;4.33;3.97;;;25.70;99.90;;;;;;5078272;23;20523;-52
2021/06/27 09:20:09;;;;;;;4.00;3.70;;;25.80;99.90;;;;;;5056456;28;20190;-51
2021/06/27 09:22:36;;;;;;;4.40;4.10;;;25.80;99.90;;;;;;5056950;28;20401;-51
2021/06/27 09:25:20;;;;;;;4.20;3.90;;;26.00;99.90;;;;;;5057166;28;20397;-52
2021/06/27 09:27:54;;;;;;;3.60;3.40;;;25.90;99.90;;;;;;5058583;28;20413;-52
2021/06/27 09:30:21;;;;;;;4.50;4.20;;;25.80;99.90;;;;;;5060613;28;20716;-51
2021/06/27 09:33:03;;;;;;;3.63;3.33;;;26.00;99.90;;;;;;5058143;28;20894;-51
2021/06/27 09:35:46;;;;;;;3.77;3.53;;;26.10;99.90;;;;;;5057303;28;20458;-53
2021/06/27 09:38:20;;;;;;;3.43;3.13;;;26.20;99.90;;;;;;5056238;28;20409;-53
2021/06/27 09:40:46;;;;;;;3.70;3.40;;;26.30;99.80;;;;;;5055185;28;20402;-52
2021/06/27 09:43:12;;;;;;;4.07;3.77;;;26.40;99.90;;;;;;5055800;28;20402;-53
2021/06/27 09:46:14;;;;;;;4.00;3.57;;;26.50;99.70;;;;;;5055801;28;20770;-52
2021/06/27 09:48:58;;;;;;;4.00;3.60;;;26.50;99.90;;;;;;5055291;28;20170;-52
2021/06/27 09:51:26;;;;;;;3.93;3.40;;;26.70;98.80;;;;;;5055757;28;20409;-52
2021/06/27 09:53:53;;;;;;;3.90;3.60;;;26.70;99.30;;;;;;5055540;28;20412;-51
2021/06/27 09:56:26;;;;;;;4.20;3.90;;;26.80;99.30;;;;;;5055303;28;20453;-51
2021/06/27 09:59:06;;;;;;;3.50;3.20;;;26.70;99.60;;;;;;5055828;28;20802;-51
2021/06/27 10:01:33;;;;;;;3.63;3.37;;;26.90;99.20;;;;;;5054763;28;20985;-53
2021/06/27 10:04:01;;;;;;;3.53;3.33;;;27.20;99.60;;;;;;5037280;28;20411;-52
2021/06/27 10:06:36;;;;;;;3.47;3.23;;;27.50;98.30;;;;;;5055622;28;20495;-49
2021/06/27 10:09:29;;;;;;;4.13;3.80;;;27.50;99.30;;;;;;5055680;28;20392;-54
2021/06/27 10:11:59;;;;;;;3.47;3.27;;;27.80;97.60;;;;;;5052202;28;20476;-51
2021/06/27 10:14:27;;;;;;;3.97;3.63;;;27.70;97.30;;;;;;5055571;28;20409;-54
2021/06/27 10:16:55;;;;;;;3.23;3.03;;;28.00;97.90;;;;;;5076698;28;20459;-54
2021/06/27 10:19:21;;;;;;;4.00;3.70;;;28.10;96.90;;;;;;5074991;28;20915;-51
2021/06/27 10:21:47;;;;;;;3.87;3.57;;;28.50;97.30;;;;;;5075417;28;20396;-53
2021/06/27 10:24:13;;;;;;;3.23;3.03;;;28.70;95.10;;;;;;5058906;28;20171;-52
2021/06/27 10:26:39;;;;;;;3.90;3.20;;;28.50;95.40;;;;;;5055011;28;20432;-54
2021/06/27 10:29:05;;;;;;;4.20;3.00;;;28.40;95.40;;;;;;5055130;28;20546;-54
2021/06/27 10:31:31;;;;;;;3.00;2.80;;;28.30;95.70;;;;;;5054820;28;20413;-50
2021/06/27 10:33:57;;;;;;;3.30;3.00;;;28.40;94.70;;;;;;5053688;28;20795;-54
2021/06/27 10:36:36;;;;;;;8.90;2.90;;;28.40;95.20;;;;;;5054843;28;20205;-53
2021/06/27 10:39:08;;;;;;;3.10;2.90;;;28.90;94.20;;;;;;5054009;28;20171;-52
2021/06/27 10:41:59;;;;;;;2.90;2.70;;;29.40;92.90;;;;;;5054673;28;20386;-51
2021/06/27 10:44:28;;;;;;;3.07;2.73;;;29.70;93.30;;;;;;5054379;28;20408;-54
2021/06/27 10:46:57;;;;;;;3.27;3.00;;;29.20;92.70;;;;;;5054848;28;20433;-51
2021/06/27 10:49:35;;;;;;;2.60;2.40;;;29.50;91.80;;;;;;5054438;28;20412;-54
2021/06/27 10:52:04;;;;;;;3.23;2.97;;;29.40;91.50;;;;;;5054379;28;20409;-51
2021/06/27 10:54:37;;;;;;;3.10;2.90;;;29.50;92.40;;;;;;5054080;28;20984;-52
2021/06/27 10:57:07;;;;;;;2.83;2.63;;;29.70;91.90;;;;;;5054469;28;20482;-51
2021/06/27 10:59:38;;;;;;;3.07;2.87;;;29.60;92.00;;;;;;5054988;28;20409;-55
2021/06/27 11:02:21;;;;;;;2.67;2.50;;;29.50;91.60;;;;;;5054681;28;20544;-52
2021/06/27 11:04:52;;;;;;;3.00;2.80;;;29.50;91.50;;;;;;5054604;28;20378;-54
2021/06/27 11:07:46;;;;;;;2.60;2.30;;;29.40;90.70;;;;;;5054048;28;20432;-51
2021/06/27 11:10:18;;;;;;;3.00;2.80;;;29.60;90.10;;;;;;5054460;28;20875;-50
2021/06/27 11:12:58;;;;;;;2.80;2.60;;;29.40;91.80;;;;;;5054490;28;20488;-50
2021/06/27 11:15:26;;;;;;;2.47;2.27;;;28.90;92.80;;;;;;5054027;28;20885;-50
2021/06/27 11:17:52;;;;;;;3.10;2.80;;;29.20;92.70;;;;;;5054063;28;20528;-50
2021/06/27 11:20:18;;;;;;;3.00;2.80;;;29.50;93.30;;;;;;5054417;28;20397;-50
2021/06/27 11:22:49;;;;;;;3.10;2.90;;;29.90;91.00;;;;;;5053853;28;20902;-52
2021/06/27 11:25:36;;;;;;;2.70;2.50;;;30.00;90.90;;;;;;5054114;28;20178;-52
2021/06/27 11:28:20;;;;;;;3.00;2.80;;;29.80;91.20;;;;;;5053813;28;20413;-51
2021/06/27 11:30:46;;;;;;;3.50;3.20;;;29.40;91.40;;;;;;5053995;28;20455;-51
2021/06/27 11:33:23;;;;;;;2.83;2.63;;;29.30;91.20;;;;;;5053637;28;20807;-53
2021/06/27 11:35:53;;;;;;;2.47;2.27;;;29.80;91.30;;;;;;5054045;28;20295;-51
2021/06/27 11:38:39;;;;;;;2.80;2.60;;;31.30;91.10;;;;;;5053129;28;20405;-53
2021/06/27 11:41:08;;;;;;;2.50;2.30;;;32.50;83.80;;;;;;5053414;28;20397;-55
2021/06/27 11:43:49;;;;;;;5.10;2.37;;;33.10;82.10;;;;;;5053527;28;20432;-54
2021/06/27 11:46:36;;;;;;;3.13;2.90;;;32.90;79.00;;;;;;5053207;28;20804;-55
2021/06/27 11:49:11;;;;;;;2.67;2.47;;;34.20;76.80;;;;;;5053445;28;20401;-54
2021/06/27 11:51:38;;;;;;;2.60;2.47;;;35.00;74.30;;;;;;5053612;28;20442;-55
2021/06/27 11:54:05;;;;;;;3.03;2.83;;;35.30;69.70;;;;;;5052845;28;20401;-55
2021/06/27 11:56:52;;;;;;;2.80;2.60;;;34.90;68.60;;;;;;5064155;28;20457;-53
2021/06/27 11:59:20;;;;;;;2.43;2.30;;;35.40;68.20;;;;;;5053327;28;20401;-54
2021/06/27 12:02:27;;;;;;;2.67;2.37;;;35.90;66.60;;;;;;5053013;28;20500;-54
2021/06/27 12:04:56;;;;;;;3.00;2.73;;;34.50;65.10;;;;;;5052512;28;20424;-56
2021/06/27 12:07:27;;;;;;;2.63;2.43;;;34.50;67.50;;;;;;5053823;28;20790;-56
2021/06/27 12:09:55;;;;;;;2.17;2.07;;;35.80;63.60;;;;;;5074686;28;20531;-53
2021/06/27 12:12:40;;;;;;;2.47;2.37;;;36.70;63.00;;;;;;5072955;28;20778;-55
2021/06/27 12:15:13;;;;;;;2.30;2.20;;;35.40;63.40;;;;;;5073152;28;20415;-55
2021/06/27 12:17:38;;;;;;;2.63;2.50;;;34.70;66.70;;;;;;5072851;28;20468;-59
2021/06/27 12:20:05;;;;;;;3.13;2.60;;;34.00;64.00;;;;;;5072892;28;20908;-58
2021/06/27 12:22:31;;;;;;;2.20;2.03;;;33.80;65.00;;;;;;5072727;28;20170;-58
2021/06/27 12:25:01;;;;;;;2.40;2.20;;;34.30;62.50;;;;;;5072608;28;20420;-58
2021/06/27 12:27:27;;;;;;;2.30;2.10;;;34.90;61.20;;;;;;5072722;28;20537;-59
2021/06/27 12:29:53;;;;;;;2.20;2.00;;;34.70;60.30;;;;;;5072768;28;20411;-59
2021/06/27 12:32:19;;;;;;;2.30;2.20;;;35.10;63.40;;;;;;5072761;28;20178;-59
2021/06/27 12:34:46;;;;;;;2.43;2.23;;;36.40;59.50;;;;;;5072752;28;20473;-59
2021/06/27 12:37:13;;;;;;;2.87;2.53;;;35.10;60.50;;;;;;5072582;28;20547;-59
2021/06/27 12:39:38;;;;;;;2.20;2.10;;;35.60;59.20;;;;;;5052460;28;20562;-59
2021/06/27 12:42:11;;;;;;;3.13;2.07;;;35.00;62.40;;;;;;5052941;28;20562;-59
2021/06/27 12:44:38;;;;;;;2.33;2.13;;;35.40;60.30;;;;;;5052650;28;20175;-57
2021/06/27 12:47:04;;;;;;;2.27;2.10;;;34.90;60.20;;;;;;5052582;28;20421;-59
2021/06/27 12:49:33;;;;;;;2.57;2.37;;;34.80;60.30;;;;;;5053208;28;20409;-59
2021/06/27 12:52:04;;;;;;;2.60;2.40;;;36.20;59.00;;;;;;5034913;28;20420;-59